Time;durP1;ratioP1;P1;durP2;ratioP2;P2;SDS_P1;SDS_P2;PMS_P1;PMS_P2;Temp;Humidity;BMP_temperature;BMP_pressure;BME280_temperature;BME280_humidity;BME280_pressure;Samples;Min_cycle;Max_cycle;Signal;HPM_P1;HPM_P2
2022/10/31 00:00:24;;;;;;;11.93;4.25;;;12.60;99.90;;;;;;5059849;28;20024;-68
2022/10/31 00:02:49;;;;;;;13.07;5.35;;;12.50;99.90;;;;;;5054878;28;20020;-69
2022/10/31 00:05:15;;;;;;;11.32;4.25;;;12.50;99.90;;;;;;5058859;28;20468;-68
2022/10/31 00:07:40;;;;;;;10.90;5.10;;;12.50;99.90;;;;;;5059314;28;20099;-66
2022/10/31 00:10:07;;;;;;;11.95;5.20;;;12.50;99.90;;;;;;5056680;28;20057;-70
2022/10/31 00:12:32;;;;;;;10.73;5.25;;;12.50;99.90;;;;;;5058981;28;20020;-67
2022/10/31 00:14:58;;;;;;;9.52;4.82;;;12.40;99.90;;;;;;5058154;28;20498;-68
2022/10/31 00:17:23;;;;;;;12.30;5.50;;;12.40;99.90;;;;;;5055124;28;20036;-67
2022/10/31 00:19:49;;;;;;;13.13;6.32;;;12.40;99.90;;;;;;5057082;28;20036;-67
2022/10/31 00:22:15;;;;;;;14.88;6.25;;;12.40;99.90;;;;;;5060206;28;20420;-66
2022/10/31 00:24:41;;;;;;;12.93;5.25;;;12.30;99.90;;;;;;5062909;28;20040;-68
2022/10/31 00:27:06;;;;;;;16.92;6.40;;;12.30;99.90;;;;;;5057507;28;20044;-67
2022/10/31 00:29:32;;;;;;;13.75;6.45;;;12.30;99.90;;;;;;5049432;28;20056;-68
2022/10/31 00:31:57;;;;;;;12.80;6.00;;;12.30;99.90;;;;;;5058180;28;20100;-68
2022/10/31 00:34:23;;;;;;;11.77;6.47;;;12.30;99.90;;;;;;5059163;28;20021;-67
2022/10/31 00:36:48;;;;;;;14.35;6.25;;;12.30;99.90;;;;;;5058413;28;20071;-68
2022/10/31 00:39:14;;;;;;;15.93;7.35;;;12.20;99.90;;;;;;5059146;28;20102;-67
2022/10/31 00:41:39;;;;;;;12.43;5.95;;;12.20;99.90;;;;;;5055734;28;20032;-68
2022/10/31 00:44:05;;;;;;;15.50;6.68;;;12.30;99.90;;;;;;5059917;28;20445;-68
2022/10/31 00:46:30;;;;;;;14.30;6.47;;;12.20;99.90;;;;;;5058585;28;20384;-68
2022/10/31 00:48:56;;;;;;;14.07;6.07;;;12.20;99.90;;;;;;5056737;28;20115;-68
2022/10/31 00:51:22;;;;;;;14.00;6.68;;;12.20;99.90;;;;;;5055375;28;20219;-68
2022/10/31 00:53:47;;;;;;;16.48;6.80;;;12.20;99.90;;;;;;5055787;28;20027;-67
2022/10/31 00:56:13;;;;;;;15.50;7.07;;;12.20;99.90;;;;;;5060340;28;20039;-68
2022/10/31 00:58:39;;;;;;;13.70;6.72;;;12.20;99.90;;;;;;5055147;28;20032;-68
2022/10/31 01:01:04;;;;;;;12.15;5.80;;;12.10;99.90;;;;;;5058187;28;20024;-68
2022/10/31 01:03:33;;;;;;;16.25;7.25;;;12.10;99.90;;;;;;5061168;28;20032;-68
2022/10/31 01:06:08;;;;;;;13.23;7.15;;;12.10;99.90;;;;;;5055569;28;20025;-68
2022/10/31 01:08:35;;;;;;;13.15;6.32;;;12.10;99.90;;;;;;5061129;28;20025;-67
2022/10/31 01:11:13;;;;;;;12.20;5.65;;;12.10;99.90;;;;;;5056040;28;20364;-68
2022/10/31 01:13:39;;;;;;;15.25;5.95;;;12.10;99.90;;;;;;5057606;28;20471;-67
2022/10/31 01:16:09;;;;;;;11.00;4.90;;;12.10;99.90;;;;;;5064556;28;20036;-68
2022/10/31 01:18:35;;;;;;;16.67;7.15;;;12.10;99.90;;;;;;5060778;28;20033;-67
2022/10/31 01:21:16;;;;;;;16.10;7.43;;;12.10;99.90;;;;;;5055283;28;20108;-67
2022/10/31 01:23:42;;;;;;;16.67;7.60;;;12.00;99.90;;;;;;5061771;28;20041;-67
2022/10/31 01:26:26;;;;;;;17.70;6.55;;;12.00;99.90;;;;;;5064299;28;20790;-67
2022/10/31 01:28:56;;;;;;;16.23;6.28;;;12.00;99.90;;;;;;5059246;28;20060;-67
2022/10/31 01:31:24;;;;;;;15.57;6.50;;;12.00;99.90;;;;;;5056979;28;20081;-68
2022/10/31 01:33:49;;;;;;;14.10;6.78;;;12.00;99.90;;;;;;5062496;28;20032;-67
2022/10/31 01:36:17;;;;;;;14.30;7.13;;;12.00;99.90;;;;;;5063466;28;20017;-68
2022/10/31 01:38:43;;;;;;;14.77;5.55;;;12.00;99.90;;;;;;5054100;28;20041;-67
2022/10/31 01:41:11;;;;;;;12.73;6.13;;;12.00;99.90;;;;;;5035564;28;20029;-66
2022/10/31 01:43:57;;;;;;;13.35;5.97;;;12.00;99.90;;;;;;5061346;28;20036;-66
2022/10/31 01:46:33;;;;;;;11.00;5.65;;;11.90;99.90;;;;;;5047941;28;20111;-67
2022/10/31 01:49:03;;;;;;;11.63;5.50;;;11.90;99.90;;;;;;5049432;28;20115;-66
2022/10/31 01:51:34;;;;;;;11.48;5.40;;;11.90;99.90;;;;;;5039777;28;20033;-68
2022/10/31 01:54:05;;;;;;;10.82;4.68;;;11.90;99.90;;;;;;5037464;28;20477;-68
2022/10/31 01:56:34;;;;;;;11.77;5.03;;;11.90;99.90;;;;;;5057276;28;20044;-68
2022/10/31 01:59:04;;;;;;;12.45;5.28;;;11.90;99.90;;;;;;5057111;28;20622;-66
2022/10/31 02:01:30;;;;;;;12.63;5.43;;;11.90;99.90;;;;;;5051440;28;20029;-67
2022/10/31 02:03:56;;;;;;;10.75;4.88;;;11.90;99.90;;;;;;5056482;28;20080;-66
2022/10/31 02:06:33;;;;;;;10.63;6.13;;;11.80;99.90;;;;;;5050993;28;20032;-67
2022/10/31 02:09:01;;;;;;;9.30;4.40;;;11.80;99.90;;;;;;5057280;28;20032;-68
2022/10/31 02:11:29;;;;;;;13.05;5.10;;;11.80;99.90;;;;;;5063397;28;20020;-67
2022/10/31 02:13:54;;;;;;;12.57;5.78;;;11.80;99.90;;;;;;5057268;28;20021;-67
2022/10/31 02:16:20;;;;;;;12.15;5.25;;;11.80;99.90;;;;;;5063353;28;20035;-68
2022/10/31 02:18:46;;;;;;;14.75;5.32;;;11.90;99.90;;;;;;5063384;28;20044;-67
2022/10/31 02:21:41;;;;;;;12.38;4.97;;;11.90;99.90;;;;;;5061850;28;20027;-67
2022/10/31 02:24:28;;;;;;;11.65;5.00;;;11.80;99.90;;;;;;5061890;28;20086;-68
2022/10/31 02:27:11;;;;;;;13.07;4.95;;;11.80;99.90;;;;;;5060249;28;20471;-67
2022/10/31 02:29:50;;;;;;;10.75;5.18;;;11.80;99.90;;;;;;5062226;28;20053;-67
2022/10/31 02:32:32;;;;;;;14.02;5.50;;;11.80;99.90;;;;;;5066389;28;20115;-67
2022/10/31 02:35:03;;;;;;;;;;;11.80;99.90;;;;;;5049081;28;20025;-67
2022/10/31 02:37:42;;;;;;;15.25;6.63;;;11.80;99.90;;;;;;5049253;28;20341;-67
2022/10/31 02:40:26;;;;;;;13.10;5.97;;;11.80;99.90;;;;;;5048190;28;20048;-68
2022/10/31 02:43:14;;;;;;;14.07;6.20;;;11.80;99.90;;;;;;5044622;28;20021;-68
2022/10/31 02:45:48;;;;;;;14.40;6.05;;;11.80;99.90;;;;;;5050219;28;20365;-67
2022/10/31 02:48:26;;;;;;;13.43;6.63;;;11.80;99.90;;;;;;5044941;28;20092;-67
2022/10/31 02:51:01;;;;;;;15.00;6.68;;;11.80;99.90;;;;;;5046803;28;20346;-67
2022/10/31 02:53:31;;;;;;;17.30;7.38;;;11.80;99.90;;;;;;5054363;28;20033;-67
2022/10/31 02:56:01;;;;;;;18.00;7.38;;;11.80;99.90;;;;;;5050133;28;20021;-67
2022/10/31 02:58:33;;;;;;;15.68;6.88;;;11.70;99.90;;;;;;5048195;28;20430;-67
2022/10/31 03:01:23;;;;;;;14.68;7.45;;;11.70;99.90;;;;;;5053275;28;20032;-67
2022/10/31 03:03:52;;;;;;;14.98;7.72;;;11.70;99.90;;;;;;5063730;28;20070;-67
2022/10/31 03:06:25;;;;;;;16.65;7.80;;;11.70;99.90;;;;;;5053115;28;20069;-67
2022/10/31 03:09:03;;;;;;;13.35;7.75;;;11.70;99.90;;;;;;5053049;28;20013;-66
2022/10/31 03:11:37;;;;;;;20.55;9.93;;;11.70;99.90;;;;;;5051971;28;20021;-67
2022/10/31 03:14:08;;;;;;;19.33;8.65;;;11.70;99.90;;;;;;5055938;28;20449;-66
2022/10/31 03:16:47;;;;;;;19.80;9.27;;;11.70;99.90;;;;;;5052891;28;20020;-67
2022/10/31 03:19:22;;;;;;;22.67;9.90;;;11.60;99.90;;;;;;5055228;28;20116;-67
2022/10/31 03:21:59;;;;;;;22.50;9.15;;;11.60;99.90;;;;;;5051799;28;20449;-67
2022/10/31 03:24:30;;;;;;;19.30;9.27;;;11.60;99.90;;;;;;5052145;28;20013;-68
2022/10/31 03:26:58;;;;;;;19.50;9.65;;;11.60;99.90;;;;;;5052733;28;20454;-67
2022/10/31 03:29:29;;;;;;;20.33;9.45;;;11.50;99.90;;;;;;5053477;28;20041;-67
2022/10/31 03:31:59;;;;;;;17.58;9.48;;;11.50;99.90;;;;;;5058536;28;20016;-67
2022/10/31 03:34:25;;;;;;;18.95;9.52;;;11.50;99.90;;;;;;5059180;28;20036;-67
2022/10/31 03:36:54;;;;;;;20.30;9.50;;;11.50;99.90;;;;;;5052251;28;20029;-67
2022/10/31 03:39:22;;;;;;;21.00;10.27;;;11.50;99.90;;;;;;5043256;28;20029;-67
2022/10/31 03:42:04;;;;;;;19.95;10.05;;;11.40;99.90;;;;;;5052762;28;20013;-67
2022/10/31 03:44:32;;;;;;;;;;;11.40;99.90;;;;;;5061687;28;20082;-67
2022/10/31 03:46:57;;;;;;;19.67;9.63;;;11.40;99.90;;;;;;5054215;28;19904;-66
2022/10/31 03:49:23;;;;;;;18.58;9.75;;;11.40;99.90;;;;;;5052398;28;20021;-66
2022/10/31 03:52:10;;;;;;;22.25;11.20;;;11.40;99.90;;;;;;5052270;28;20017;-67
2022/10/31 03:54:38;;;;;;;23.98;12.35;;;11.40;99.90;;;;;;5052037;28;20020;-67
2022/10/31 03:57:14;;;;;;;24.30;13.00;;;11.30;99.90;;;;;;5052109;28;20025;-67
2022/10/31 03:59:46;;;;;;;25.17;12.88;;;11.30;99.90;;;;;;5052610;28;20044;-67
2022/10/31 04:02:14;;;;;;;;;;;11.30;99.90;;;;;;5052109;28;20037;-67
2022/10/31 04:04:41;;;;;;;22.15;11.68;;;11.30;99.90;;;;;;5047816;28;19908;-67
2022/10/31 04:07:09;;;;;;;24.40;12.48;;;11.30;99.90;;;;;;5049801;28;20500;-67
2022/10/31 04:09:38;;;;;;;23.65;13.18;;;11.20;99.90;;;;;;5052461;28;20025;-67
2022/10/31 04:12:08;;;;;;;25.13;12.80;;;11.20;99.90;;;;;;5048581;28;20052;-67
2022/10/31 04:14:37;;;;;;;25.15;13.43;;;11.20;99.90;;;;;;5047591;28;20024;-67
2022/10/31 04:17:07;;;;;;;25.25;14.20;;;11.20;99.90;;;;;;5052183;28;20029;-68
2022/10/31 04:19:33;;;;;;;27.85;14.25;;;11.20;99.90;;;;;;5052132;28;20056;-66
2022/10/31 04:21:59;;;;;;;27.15;13.93;;;11.20;99.90;;;;;;5058741;28;20380;-66
2022/10/31 04:24:25;;;;;;;25.17;12.85;;;11.20;99.90;;;;;;5051979;28;20504;-67
2022/10/31 04:26:50;;;;;;;25.33;14.38;;;11.10;99.90;;;;;;5050597;28;20016;-66
2022/10/31 04:29:16;;;;;;;24.23;13.00;;;11.10;99.90;;;;;;5051757;28;20045;-66
2022/10/31 04:31:42;;;;;;;24.45;15.13;;;11.10;99.90;;;;;;5049776;28;20506;-68
2022/10/31 04:34:07;;;;;;;27.73;15.45;;;11.10;99.90;;;;;;5058524;28;20025;-66
2022/10/31 04:36:33;;;;;;;26.67;14.50;;;11.10;99.90;;;;;;5052531;28;20021;-67
2022/10/31 04:38:58;;;;;;;25.98;14.70;;;11.10;99.90;;;;;;5054774;28;20041;-67
2022/10/31 04:41:24;;;;;;;25.15;16.02;;;11.10;99.90;;;;;;5051298;28;20029;-67
2022/10/31 04:43:50;;;;;;;28.70;16.23;;;11.10;99.90;;;;;;5055396;28;20134;-67
2022/10/31 04:46:15;;;;;;;27.77;16.15;;;11.10;99.90;;;;;;5052480;28;20026;-67
2022/10/31 04:48:41;;;;;;;26.50;17.00;;;11.10;99.90;;;;;;5057074;28;20471;-67
2022/10/31 04:51:06;;;;;;;27.60;15.98;;;11.10;99.90;;;;;;5054164;28;20074;-67
2022/10/31 04:53:32;;;;;;;28.23;16.80;;;11.10;99.90;;;;;;5054332;28;20020;-67
2022/10/31 04:55:59;;;;;;;28.08;15.48;;;11.00;99.90;;;;;;5052589;28;20017;-67
2022/10/31 04:58:25;;;;;;;31.63;16.25;;;11.10;99.90;;;;;;5055847;28;20037;-67
2022/10/31 05:00:56;;;;;;;26.75;16.35;;;11.10;99.90;;;;;;5054162;28;20025;-67
2022/10/31 05:03:21;;;;;;;27.00;15.50;;;11.00;99.90;;;;;;5064910;28;20036;-68
2022/10/31 05:05:47;;;;;;;27.48;15.40;;;11.10;99.90;;;;;;5053775;28;20017;-67
2022/10/31 05:08:14;;;;;;;29.55;15.85;;;11.00;99.90;;;;;;5054305;28;20021;-68
2022/10/31 05:10:40;;;;;;;31.42;15.52;;;11.00;99.90;;;;;;5054059;28;20025;-67
2022/10/31 05:13:06;;;;;;;30.73;15.07;;;11.00;99.90;;;;;;5054257;28;20032;-67
2022/10/31 05:15:32;;;;;;;34.20;15.90;;;11.00;99.90;;;;;;5066151;28;20019;-67
2022/10/31 05:17:58;;;;;;;28.52;16.45;;;10.90;99.90;;;;;;5054007;28;20053;-67
2022/10/31 05:20:26;;;;;;;31.25;16.95;;;10.90;99.90;;;;;;5048435;28;20052;-67
2022/10/31 05:22:53;;;;;;;69.72;19.13;;;10.90;99.90;;;;;;5050945;28;20052;-67
2022/10/31 05:25:21;;;;;;;181.48;29.02;;;10.90;99.90;;;;;;5053706;28;20020;-67
2022/10/31 05:27:49;;;;;;;35.03;18.08;;;10.90;99.90;;;;;;5053684;28;20021;-67
2022/10/31 05:30:17;;;;;;;31.60;17.00;;;10.90;99.90;;;;;;5016652;28;1090783;-66
2022/10/31 05:32:45;;;;;;;31.38;17.10;;;10.90;99.90;;;;;;5053592;28;20441;-67
2022/10/31 05:35:16;;;;;;;36.72;16.75;;;10.90;99.90;;;;;;5038518;28;20045;-66
2022/10/31 05:37:42;;;;;;;46.47;19.90;;;10.90;99.90;;;;;;5053829;28;20060;-67
2022/10/31 05:40:10;;;;;;;37.25;16.98;;;10.80;99.90;;;;;;5054354;28;20064;-68
2022/10/31 05:42:35;;;;;;;37.40;19.70;;;10.80;99.90;;;;;;5054810;28;20033;-68
2022/10/31 05:45:01;;;;;;;50.30;20.98;;;10.80;99.90;;;;;;5054231;28;20075;-67
2022/10/31 05:47:27;;;;;;;40.70;19.55;;;10.80;99.90;;;;;;5056903;28;20036;-67
2022/10/31 05:49:52;;;;;;;40.30;19.52;;;10.80;99.90;;;;;;5054822;28;20049;-67
2022/10/31 05:52:18;;;;;;;43.85;21.35;;;10.80;99.90;;;;;;5064359;28;20017;-67
2022/10/31 05:54:44;;;;;;;65.30;23.75;;;10.80;99.90;;;;;;5056531;28;20401;-67
2022/10/31 05:57:09;;;;;;;70.72;24.63;;;10.80;99.90;;;;;;5054325;28;20020;-67
2022/10/31 05:59:35;;;;;;;50.42;22.67;;;10.70;99.90;;;;;;5053082;28;20040;-67
2022/10/31 06:02:01;;;;;;;50.47;24.73;;;10.80;99.90;;;;;;5054604;28;20388;-67
2022/10/31 06:04:26;;;;;;;50.88;24.88;;;10.70;99.90;;;;;;5061847;28;20019;-67
2022/10/31 06:06:52;;;;;;;47.13;24.23;;;10.70;99.90;;;;;;5055377;28;20020;-67
2022/10/31 06:09:17;;;;;;;46.30;24.00;;;10.70;99.90;;;;;;5054357;28;20449;-67
2022/10/31 06:11:43;;;;;;;53.38;25.50;;;10.70;99.90;;;;;;5055774;28;20043;-67
2022/10/31 06:14:08;;;;;;;51.33;25.42;;;10.70;99.90;;;;;;5051483;28;20021;-67
2022/10/31 06:16:34;;;;;;;122.45;29.65;;;10.60;99.90;;;;;;5050669;28;20535;-67
2022/10/31 06:19:00;;;;;;;59.58;26.67;;;10.60;99.90;;;;;;5054539;28;20032;-67
2022/10/31 06:21:25;;;;;;;59.05;26.63;;;10.60;99.90;;;;;;5053851;28;20449;-67
2022/10/31 06:23:51;;;;;;;51.75;27.98;;;10.70;99.90;;;;;;5054075;28;20025;-67
2022/10/31 06:26:17;;;;;;;60.08;28.33;;;10.70;99.90;;;;;;5053852;28;20071;-67
2022/10/31 06:28:42;;;;;;;51.42;26.63;;;10.60;99.90;;;;;;5045263;28;20384;-66
2022/10/31 06:31:08;;;;;;;66.18;28.73;;;10.60;99.90;;;;;;5053666;28;20029;-67
2022/10/31 06:33:34;;;;;;;54.80;28.08;;;10.60;99.90;;;;;;5052407;28;20452;-67
2022/10/31 06:36:00;;;;;;;58.15;28.65;;;10.60;99.90;;;;;;5044156;28;20056;-66
2022/10/31 06:38:27;;;;;;;58.28;28.75;;;10.60;99.90;;;;;;5047221;28;20072;-68
2022/10/31 06:40:54;;;;;;;59.17;29.60;;;10.60;99.90;;;;;;5053699;28;20047;-67
2022/10/31 06:43:20;;;;;;;65.38;28.75;;;10.60;99.90;;;;;;5053285;28;20365;-66
2022/10/31 06:45:46;;;;;;;61.28;29.67;;;10.60;99.90;;;;;;5050335;28;20061;-66
2022/10/31 06:48:12;;;;;;;60.67;29.27;;;10.60;99.90;;;;;;5052920;28;20045;-66
2022/10/31 06:50:37;;;;;;;64.95;31.35;;;10.70;99.90;;;;;;5053058;28;20025;-67
2022/10/31 06:53:03;;;;;;;68.15;29.95;;;10.70;99.90;;;;;;5053364;28;20386;-67
2022/10/31 06:55:28;;;;;;;62.13;32.22;;;10.70;99.90;;;;;;5053097;28;20021;-67
2022/10/31 06:57:56;;;;;;;63.63;31.52;;;10.70;99.90;;;;;;5058150;28;20020;-67
2022/10/31 07:00:22;;;;;;;62.03;30.85;;;10.80;99.90;;;;;;5073193;28;20028;-66
2022/10/31 07:03:01;;;;;;;61.05;31.38;;;10.80;99.90;;;;;;5073704;28;20128;-68
2022/10/31 07:05:28;;;;;;;59.50;29.85;;;10.80;99.90;;;;;;5073692;28;20067;-67
2022/10/31 07:07:55;;;;;;;160.73;37.53;;;10.80;99.90;;;;;;5073684;28;20162;-67
2022/10/31 07:10:21;;;;;;;65.38;31.85;;;10.80;99.90;;;;;;5053019;28;20024;-67
2022/10/31 07:12:47;;;;;;;62.00;30.42;;;10.90;99.90;;;;;;5049902;28;20036;-67
2022/10/31 07:15:12;;;;;;;62.65;32.10;;;10.90;99.90;;;;;;5064051;28;20368;-68
2022/10/31 07:17:38;;;;;;;61.83;31.33;;;10.90;99.90;;;;;;5072212;28;20024;-67
2022/10/31 07:20:04;;;;;;;65.63;33.30;;;11.00;99.90;;;;;;5062804;28;20045;-67
2022/10/31 07:22:37;;;;;;;64.50;32.92;;;11.00;99.90;;;;;;5051154;28;20021;-67
2022/10/31 07:25:03;;;;;;;58.30;30.65;;;11.10;99.90;;;;;;5036879;28;20026;-66
2022/10/31 07:27:38;;;;;;;67.47;34.10;;;11.10;99.90;;;;;;5051630;28;20100;-66
2022/10/31 07:30:05;;;;;;;70.03;33.28;;;11.20;99.90;;;;;;5053125;28;20045;-65
2022/10/31 07:32:42;;;;;;;60.30;31.65;;;11.30;99.90;;;;;;5053181;28;20021;-67
2022/10/31 07:35:09;;;;;;;60.22;33.25;;;11.40;99.90;;;;;;5053063;28;20312;-67
2022/10/31 07:37:35;;;;;;;59.60;32.78;;;11.50;99.90;;;;;;5052775;28;20025;-66
2022/10/31 07:40:04;;;;;;;62.38;32.97;;;11.50;99.90;;;;;;5056461;28;20520;-65
2022/10/31 07:42:35;;;;;;;58.13;33.45;;;11.60;99.90;;;;;;5048704;28;20036;-66
2022/10/31 07:45:01;;;;;;;58.53;32.20;;;11.70;99.90;;;;;;5032764;28;20045;-66
2022/10/31 07:47:27;;;;;;;59.30;32.13;;;11.80;99.90;;;;;;5044748;28;20029;-66
2022/10/31 07:49:52;;;;;;;61.42;30.67;;;11.80;99.90;;;;;;5054149;28;20049;-67
2022/10/31 07:52:18;;;;;;;54.22;31.10;;;11.90;99.90;;;;;;5052484;28;20024;-66
2022/10/31 07:54:44;;;;;;;54.67;30.25;;;12.00;99.90;;;;;;5063734;28;20032;-67
2022/10/31 07:57:09;;;;;;;52.65;29.50;;;12.10;99.90;;;;;;5052712;28;20021;-67
2022/10/31 07:59:35;;;;;;;50.30;28.05;;;12.20;99.90;;;;;;5052817;28;20911;-66
2022/10/31 08:02:00;;;;;;;47.60;27.15;;;12.30;99.90;;;;;;5052509;28;20038;-66
2022/10/31 08:04:26;;;;;;;48.28;26.13;;;12.40;99.90;;;;;;5036532;28;20381;-67
2022/10/31 08:06:51;;;;;;;47.35;26.75;;;12.50;99.90;;;;;;5032446;28;20108;-67
2022/10/31 08:09:17;;;;;;;46.60;26.55;;;12.60;99.90;;;;;;5032682;28;20021;-68
2022/10/31 08:11:42;;;;;;;47.67;27.35;;;12.70;99.90;;;;;;5035232;28;20094;-66
2022/10/31 08:14:08;;;;;;;49.42;25.95;;;12.80;99.90;;;;;;5052171;28;20029;-67
2022/10/31 08:16:34;;;;;;;47.03;26.23;;;12.90;99.90;;;;;;5052300;28;20154;-67
2022/10/31 08:18:59;;;;;;;48.53;25.17;;;13.00;99.90;;;;;;5052388;28;20368;-67
2022/10/31 08:21:25;;;;;;;46.85;24.25;;;13.00;99.90;;;;;;5046062;28;20021;-67
2022/10/31 08:23:52;;;;;;;47.33;24.88;;;13.10;99.90;;;;;;5052178;28;20021;-67
2022/10/31 08:26:17;;;;;;;47.80;24.58;;;13.30;99.90;;;;;;5045329;28;20041;-67
2022/10/31 08:28:43;;;;;;;48.70;25.23;;;13.40;99.90;;;;;;5051114;28;20052;-67
2022/10/31 08:31:09;;;;;;;44.38;23.00;;;13.50;99.90;;;;;;5051001;28;20077;-67
2022/10/31 08:33:35;;;;;;;47.17;23.05;;;13.60;99.90;;;;;;5047943;28;20110;-67
2022/10/31 08:36:01;;;;;;;45.75;22.90;;;13.80;99.90;;;;;;5051959;28;20083;-67
2022/10/31 08:38:26;;;;;;;42.17;23.25;;;13.90;99.90;;;;;;5051876;28;20071;-67
2022/10/31 08:40:52;;;;;;;44.67;23.73;;;14.10;99.90;;;;;;5051791;28;20040;-67
2022/10/31 08:43:18;;;;;;;51.05;24.77;;;14.20;99.90;;;;;;5051829;28;20029;-68
2022/10/31 08:45:47;;;;;;;43.45;22.95;;;14.30;99.90;;;;;;5052029;28;20067;-67
2022/10/31 08:48:15;;;;;;;43.83;24.00;;;14.50;99.90;;;;;;5050292;28;20052;-67
2022/10/31 08:50:42;;;;;;;43.35;22.80;;;14.60;99.90;;;;;;5051806;28;20433;-67
2022/10/31 08:53:11;;;;;;;47.45;24.85;;;14.70;99.90;;;;;;5051904;28;20033;-67
2022/10/31 08:55:38;;;;;;;45.22;23.85;;;14.90;99.90;;;;;;5052020;28;20056;-67
2022/10/31 08:58:06;;;;;;;43.30;23.00;;;15.20;99.90;;;;;;5051677;28;20040;-67
2022/10/31 09:00:33;;;;;;;41.17;21.25;;;15.30;99.90;;;;;;5061904;28;20446;-67
2022/10/31 09:03:01;;;;;;;33.80;19.35;;;15.70;99.90;;;;;;5065103;28;20059;-67
2022/10/31 09:05:27;;;;;;;34.50;18.00;;;16.20;99.90;;;;;;5051928;28;20025;-66
2022/10/31 09:08:01;;;;;;;30.65;16.08;;;16.90;99.90;;;;;;5051901;28;20074;-66
2022/10/31 09:10:27;;;;;;;29.13;16.85;;;17.80;99.90;;;;;;5051866;28;20051;-67
2022/10/31 09:13:03;;;;;;;25.75;13.85;;;18.60;99.90;;;;;;5051650;28;20079;-66
2022/10/31 09:15:30;;;;;;;23.33;13.98;;;19.20;99.90;;;;;;5051967;28;20025;-66
2022/10/31 09:17:56;;;;;;;24.63;12.88;;;19.60;99.90;;;;;;5049117;28;20540;-66
2022/10/31 09:20:22;;;;;;;22.75;12.38;;;20.00;99.90;;;;;;5051551;28;20112;-66
2022/10/31 09:22:47;;;;;;;21.35;12.30;;;20.50;99.90;;;;;;5053112;28;20017;-67
2022/10/31 09:25:13;;;;;;;20.65;11.70;;;20.60;99.90;;;;;;5054203;28;20111;-67
2022/10/31 09:27:39;;;;;;;22.60;12.23;;;20.80;99.90;;;;;;5055053;28;20024;-67
2022/10/31 09:30:05;;;;;;;23.52;11.57;;;20.90;99.90;;;;;;5054818;28;20075;-67
2022/10/31 09:32:30;;;;;;;19.48;10.80;;;20.90;99.90;;;;;;5068606;28;20073;-67
2022/10/31 09:34:56;;;;;;;18.48;10.15;;;21.10;99.90;;;;;;5047838;28;20028;-67
2022/10/31 09:37:22;;;;;;;18.92;10.30;;;21.30;99.90;;;;;;5054820;28;20360;-67
2022/10/31 09:39:48;;;;;;;19.45;10.38;;;21.50;99.90;;;;;;5054856;28;20033;-67
2022/10/31 09:42:40;;;;;;;19.88;10.98;;;21.30;99.90;;;;;;5055000;28;20024;-67
2022/10/31 09:45:38;;;;;;;22.70;11.77;;;21.00;99.90;;;;;;5055372;28;20025;-67
2022/10/31 09:48:18;;;;;;;20.00;10.77;;;20.50;99.90;;;;;;5055088;28;20040;-67
2022/10/31 09:51:00;;;;;;;25.00;12.02;;;20.00;99.90;;;;;;5055158;28;20392;-67
2022/10/31 09:53:35;;;;;;;22.70;10.73;;;19.70;99.90;;;;;;5052858;28;20031;-67
2022/10/31 09:56:04;;;;;;;21.05;10.57;;;19.60;99.90;;;;;;5054869;28;20108;-67
2022/10/31 09:58:32;;;;;;;21.48;12.57;;;19.70;99.90;;;;;;5054420;28;20342;-67
2022/10/31 10:01:01;;;;;;;25.73;11.70;;;20.10;99.90;;;;;;5054672;28;20477;-67
2022/10/31 10:03:41;;;;;;;21.95;11.05;;;20.70;99.90;;;;;;5047281;28;20028;-68
2022/10/31 10:06:24;;;;;;;24.02;11.52;;;21.30;99.90;;;;;;5044776;28;20082;-67
2022/10/31 10:08:49;;;;;;;15.02;7.55;;;21.50;99.90;;;;;;5054710;28;20059;-67
2022/10/31 10:11:15;;;;;;;21.52;9.60;;;21.50;99.90;;;;;;5052995;28;20132;-67
2022/10/31 10:13:59;;;;;;;17.88;8.75;;;21.30;99.90;;;;;;5054885;28;20021;-67
2022/10/31 10:16:49;;;;;;;19.65;8.98;;;21.00;99.90;;;;;;5054627;28;20024;-67
2022/10/31 10:19:27;;;;;;;16.02;8.18;;;20.80;99.90;;;;;;5053298;28;20360;-67
2022/10/31 10:22:09;;;;;;;19.38;9.23;;;20.50;99.90;;;;;;5054482;28;20022;-67
2022/10/31 10:25:08;;;;;;;18.33;8.88;;;20.30;99.90;;;;;;5054317;28;20527;-67
2022/10/31 10:27:52;;;;;;;26.00;9.65;;;20.10;99.90;;;;;;5053464;28;20039;-66
2022/10/31 10:30:43;;;;;;;18.67;8.82;;;20.10;99.90;;;;;;5053962;28;20118;-67
2022/10/31 10:33:12;;;;;;;18.70;8.52;;;20.20;99.90;;;;;;5053344;28;20449;-67
2022/10/31 10:35:43;;;;;;;19.55;9.63;;;20.50;99.90;;;;;;5053270;28;20017;-67
2022/10/31 10:38:49;;;;;;;17.97;8.70;;;20.80;99.90;;;;;;5053848;28;20025;-67
2022/10/31 10:41:19;;;;;;;17.98;7.65;;;21.00;99.90;;;;;;5030347;28;20041;-68
2022/10/31 10:43:44;;;;;;;16.67;8.50;;;21.10;99.90;;;;;;5053442;28;20492;-67
2022/10/31 10:49:15;;;;;;;17.92;8.93;;;21.10;99.90;;;;;;5053680;28;20171;-67
2022/10/31 10:52:00;;;;;;;21.50;9.02;;;21.10;99.90;;;;;;5054314;28;20468;-67
2022/10/31 10:54:46;;;;;;;23.70;10.88;;;21.20;99.90;;;;;;5052144;28;20531;-68
2022/10/31 10:57:40;;;;;;;20.65;10.18;;;21.10;99.90;;;;;;5053474;28;20108;-68
2022/10/31 11:00:25;;;;;;;20.60;9.70;;;21.20;99.90;;;;;;5053651;28;20065;-68
2022/10/31 11:02:51;;;;;;;21.92;11.00;;;21.90;99.90;;;;;;5045993;28;20453;-68
2022/10/31 11:05:42;;;;;;;21.73;10.75;;;23.00;99.90;;;;;;5051331;28;20017;-68
2022/10/31 11:08:08;;;;;;;20.33;9.63;;;24.20;99.90;;;;;;5048017;28;20027;-68
2022/10/31 11:10:34;;;;;;;20.38;10.45;;;25.40;99.80;;;;;;5033272;28;20113;-68
2022/10/31 11:13:12;;;;;;;21.52;10.50;;;25.70;98.20;;;;;;5033520;28;20036;-67
2022/10/31 11:16:06;;;;;;;21.45;10.63;;;25.50;98.80;;;;;;5036747;28;20057;-67
2022/10/31 11:18:36;;;;;;;22.98;12.80;;;25.40;98.90;;;;;;5033190;28;20049;-68
2022/10/31 11:21:04;;;;;;;24.33;11.05;;;25.10;98.90;;;;;;5032558;28;20469;-68
2022/10/31 11:23:31;;;;;;;17.92;9.80;;;24.50;98.80;;;;;;5045884;28;20128;-67
2022/10/31 11:26:02;;;;;;;20.48;9.85;;;23.90;99.50;;;;;;5052818;28;20029;-67
2022/10/31 11:28:29;;;;;;;22.20;10.52;;;23.50;99.80;;;;;;5040777;28;20095;-66
2022/10/31 11:30:58;;;;;;;20.80;11.10;;;23.20;99.90;;;;;;5033351;28;20037;-66
2022/10/31 11:33:36;;;;;;;20.77;10.23;;;23.00;99.90;;;;;;5033302;28;20358;-67
2022/10/31 11:36:24;;;;;;;21.23;11.30;;;22.80;99.90;;;;;;5042290;28;20025;-68
2022/10/31 11:38:51;;;;;;;24.55;12.45;;;22.50;99.90;;;;;;5052662;28;20044;-67
2022/10/31 11:41:42;;;;;;;25.13;12.55;;;22.20;99.90;;;;;;5045472;28;20031;-66
2022/10/31 11:44:28;;;;;;;19.73;11.07;;;21.80;99.90;;;;;;5036786;28;20040;-66
2022/10/31 11:46:58;;;;;;;25.17;12.40;;;21.40;99.90;;;;;;5050829;28;20025;-67
2022/10/31 11:49:40;;;;;;;22.35;10.63;;;21.10;99.90;;;;;;5050800;28;20040;-67
2022/10/31 11:52:25;;;;;;;23.25;9.63;;;20.90;99.90;;;;;;5045892;28;20478;-67
2022/10/31 11:54:59;;;;;;;22.88;10.48;;;20.90;99.90;;;;;;5047858;28;20505;-67
2022/10/31 11:57:33;;;;;;;19.65;10.23;;;20.90;99.90;;;;;;5046122;28;20021;-67
2022/10/31 12:00:03;;;;;;;24.48;12.45;;;20.90;99.90;;;;;;5048523;28;20032;-67
2022/10/31 12:02:29;;;;;;;21.77;10.85;;;20.90;99.90;;;;;;5047183;28;20414;-67
2022/10/31 12:05:17;;;;;;;23.17;11.02;;;21.30;99.90;;;;;;5056302;28;20468;-66
2022/10/31 12:07:43;;;;;;;19.20;10.30;;;22.10;99.90;;;;;;5032852;28;20071;-67
2022/10/31 12:10:13;;;;;;;20.27;10.68;;;22.70;99.90;;;;;;5036059;28;20104;-66
2022/10/31 12:12:54;;;;;;;22.60;10.27;;;23.00;99.90;;;;;;5033991;28;20025;-68
2022/10/31 12:15:26;;;;;;;22.17;10.43;;;23.30;99.90;;;;;;5037066;28;20025;-67
2022/10/31 12:18:02;;;;;;;18.75;10.45;;;23.80;99.90;;;;;;5051278;28;20373;-65
2022/10/31 12:20:46;;;;;;;19.65;10.35;;;24.30;99.90;;;;;;5048852;28;20060;-67
2022/10/31 12:23:37;;;;;;;21.60;10.13;;;24.80;99.40;;;;;;5037801;28;20025;-66
2022/10/31 12:26:21;;;;;;;19.38;10.30;;;25.20;98.30;;;;;;5043008;28;20048;-67
2022/10/31 12:29:11;;;;;;;17.90;10.13;;;25.20;98.20;;;;;;5052168;28;20049;-67
2022/10/31 12:31:53;;;;;;;23.52;10.93;;;25.40;98.10;;;;;;5032816;28;20075;-67
2022/10/31 12:34:46;;;;;;;21.15;11.20;;;25.30;97.90;;;;;;5032689;28;20013;-66
2022/10/31 12:37:32;;;;;;;23.08;10.95;;;25.00;98.10;;;;;;5032613;28;20508;-66
2022/10/31 12:40:16;;;;;;;23.10;12.15;;;24.80;98.10;;;;;;5032544;28;20069;-67
2022/10/31 12:43:03;;;;;;;20.27;11.30;;;24.50;98.50;;;;;;5053723;28;20045;-67
2022/10/31 12:45:53;;;;;;;24.08;12.50;;;24.40;98.60;;;;;;5050936;28;20082;-67
2022/10/31 12:48:52;;;;;;;23.23;11.88;;;24.40;99.10;;;;;;5034989;28;20032;-67
2022/10/31 12:51:39;;;;;;;25.27;13.05;;;24.60;99.00;;;;;;5037356;28;20037;-67